createdAt,value
2022-12-15T00:01:42.959Z,99935.97
2022-12-15T00:04:28.201Z,99933.81
2022-12-15T00:07:13.349Z,99933.88
2022-12-15T00:09:58.395Z,99930.94
2022-12-15T00:12:43.293Z,99916.50
2022-12-15T00:15:28.184Z,99913.56
2022-12-15T00:18:13.283Z,99929.34
2022-12-15T00:20:58.490Z,99928.59
2022-12-15T00:23:43.349Z,99928.59
2022-12-15T00:26:28.234Z,99932.88
2022-12-15T00:29:13.536Z,99930.72
2022-12-15T00:31:58.873Z,99929.34
2022-12-15T00:34:44.161Z,99925.06
2022-12-15T00:37:29.062Z,99930.78
2022-12-15T00:39:58.782Z,99920.03
2022-12-15T00:42:25.949Z,99920.03
2022-12-15T00:44:52.264Z,99920.03
2022-12-15T00:47:18.617Z,99925.78
2022-12-15T00:50:03.774Z,99916.44
2022-12-15T00:52:48.743Z,99927.13
2022-12-15T00:55:33.576Z,99924.91
2022-12-15T00:58:18.518Z,99924.09
2022-12-15T01:01:03.700Z,99925.53
2022-12-15T01:03:48.623Z,99924.75
2022-12-15T01:06:35.240Z,99928.41
2022-12-15T01:09:20.323Z,99931.28
2022-12-15T01:12:05.266Z,99926.97
2022-12-15T01:14:50.219Z,99934.88
2022-12-15T01:17:38.085Z,99949.31
2022-12-15T01:20:20.050Z,99946.44
2022-12-15T01:22:49.932Z,99946.44
2022-12-15T01:25:17.248Z,99950.03
2022-12-15T01:27:43.656Z,99963.66
2022-12-15T01:30:10.737Z,99962.19
2022-12-15T01:32:40.350Z,99942.00
2022-12-15T01:35:09.844Z,99949.16
2022-12-15T01:37:36.218Z,99949.81
2022-12-15T01:40:21.652Z,99954.09
2022-12-15T01:42:47.978Z,99950.50
2022-12-15T01:45:23.536Z,99946.16
2022-12-15T01:47:52.777Z,99954.75
2022-12-15T01:50:19.104Z,99949.00
2022-12-15T01:52:45.441Z,99960.56
2022-12-15T01:55:16.361Z,99949.81
2022-12-15T01:57:42.685Z,99954.84
2022-12-15T02:00:09.064Z,99950.53
2022-12-15T02:02:39.967Z,99951.31
2022-12-15T02:05:06.902Z,99945.56
2022-12-15T02:07:33.217Z,99947.69
2022-12-15T02:10:00.240Z,99952.69
2022-12-15T02:12:44.714Z,99959.13
2022-12-15T02:15:11.009Z,99964.09
2022-12-15T02:17:40.904Z,99954.69
2022-12-15T02:20:18.824Z,99960.44
2022-12-15T02:23:03.844Z,99970.47
2022-12-15T02:33:55.114Z,99990.56
2022-12-15T02:36:34.869Z,99995.63
2022-12-15T02:39:01.331Z,99999.25
2022-12-15T02:41:37.654Z,99997.13
2022-12-15T02:44:07.810Z,99997.78
2022-12-15T02:46:36.829Z,100008.59
2022-12-15T02:49:06.946Z,100007.88
2022-12-15T02:51:43.618Z,100004.94
2022-12-15T02:54:20.614Z,100012.13
2022-12-15T02:56:51.841Z,100000.56
2022-12-15T02:59:37.830Z,100001.97
2022-12-15T03:02:05.967Z,100005.47
2022-12-15T03:04:33.888Z,100020.53
2022-12-15T03:07:01.556Z,100015.50
2022-12-15T03:09:27.977Z,100018.38
2022-12-15T03:11:54.306Z,100010.50
2022-12-15T03:14:21.036Z,100022.09
2022-12-15T03:16:47.415Z,100023.44
2022-12-15T03:19:13.776Z,100017.69
2022-12-15T03:21:40.109Z,100013.47
2022-12-15T03:24:06.512Z,100013.47
2022-12-15T03:26:32.853Z,100014.94
2022-12-15T03:28:59.156Z,100019.94
2022-12-15T03:31:25.512Z,100019.94
2022-12-15T03:33:51.840Z,100023.44
2022-12-15T03:36:18.165Z,100023.44
2022-12-15T03:38:44.526Z,100019.09
2022-12-15T03:41:10.841Z,100026.25
2022-12-15T03:43:37.849Z,100027.56
2022-12-15T03:46:04.257Z,100030.53
2022-12-15T03:48:30.601Z,100034.81
2022-12-15T03:50:56.968Z,100035.53
2022-12-15T03:53:23.287Z,100039.13
2022-12-15T03:55:49.589Z,100040.63
2022-12-15T03:58:15.907Z,100030.59
2022-12-15T04:00:42.222Z,100040.06
2022-12-15T04:03:09.557Z,100037.91
2022-12-15T04:05:36.002Z,100043.66
2022-12-15T04:08:02.354Z,100047.28
2022-12-15T04:10:34.018Z,100050.88
2022-12-15T04:13:01.614Z,100058.00
2022-12-15T04:15:27.937Z,100049.41
2022-12-15T04:17:54.298Z,100058.00
2022-12-15T04:20:20.648Z,100063.75
2022-12-15T04:22:47.446Z,100060.78
2022-12-15T04:25:33.185Z,100062.94
2022-12-15T04:28:18.268Z,100072.22
2022-12-15T04:31:22.321Z,100077.97
2022-12-15T04:34:08.319Z,100080.75
2022-12-15T04:36:53.110Z,100081.50
2022-12-15T04:39:37.918Z,100087.97
2022-12-15T04:42:22.716Z,100099.44
2022-12-15T04:45:07.867Z,100106.69
2022-12-15T04:47:52.848Z,100099.44
2022-12-15T04:50:37.560Z,100108.16
2022-12-15T04:53:25.906Z,100108.88
2022-12-15T04:56:16.482Z,100112.47
2022-12-15T04:59:03.161Z,100115.34
2022-12-15T05:01:48.174Z,100111.03
2022-12-15T05:04:33.426Z,100103.88
2022-12-15T05:07:18.462Z,100108.16
2022-12-15T05:10:04.321Z,100103.13
2022-12-15T05:12:51.273Z,100113.88
2022-12-15T05:15:36.170Z,100126.84
2022-12-15T05:18:21.545Z,100132.59
2022-12-15T05:21:06.536Z,100136.97
2022-12-15T05:23:51.459Z,100138.31
2022-12-15T05:26:36.228Z,100146.31
2022-12-15T05:29:21.189Z,100151.34
2022-12-15T05:31:55.086Z,100142.63
2022-12-15T05:34:26.117Z,100138.28
2022-12-15T05:36:52.880Z,100148.28
2022-12-15T05:39:19.417Z,100139.66
2022-12-15T05:41:45.774Z,100132.44
2022-12-15T05:44:12.110Z,100143.94
2022-12-15T05:46:38.512Z,100149.69
2022-12-15T05:49:08.229Z,100171.25
2022-12-15T05:51:34.569Z,100176.25
2022-12-15T05:54:00.889Z,100176.25
2022-12-15T05:56:27.371Z,100178.50
2022-12-15T05:58:53.695Z,100183.47
2022-12-15T06:01:20.060Z,100181.94
2022-12-15T06:03:46.476Z,100185.63
2022-12-15T06:06:12.788Z,100177.81
2022-12-15T06:08:39.488Z,100188.56
2022-12-15T06:11:05.811Z,100190.41
2022-12-15T06:13:32.654Z,100189.25
2022-12-15T06:16:05.548Z,100184.16
2022-12-15T06:18:32.646Z,100180.06
2022-12-15T06:20:59.460Z,100179.63
2022-12-15T06:23:27.115Z,100184.97
2022-12-15T06:25:59.456Z,100186.56
2022-12-15T06:28:25.931Z,100178.03
2022-12-15T06:30:53.096Z,100173.75
2022-12-15T06:33:19.766Z,100176.69
2022-12-15T06:35:52.148Z,100179.66
2022-12-15T06:38:18.478Z,100185.56
2022-12-15T06:40:44.817Z,100181.13
2022-12-15T06:43:11.145Z,100183.66
2022-12-15T06:45:37.471Z,100201.03
2022-12-15T06:48:03.838Z,100186.00
2022-12-15T06:50:30.178Z,100186.94
2022-12-15T06:52:57.103Z,100195.56
2022-12-15T06:55:23.428Z,100204.09
2022-12-15T06:57:49.756Z,100209.84
2022-12-15T07:00:16.179Z,100229.97
2022-12-15T07:02:50.314Z,100234.34
2022-12-15T07:05:16.856Z,100231.81
2022-12-15T07:07:43.205Z,100237.19
2022-12-15T07:10:10.866Z,100240.66
2022-12-15T07:12:43.015Z,100238.53
2022-12-15T07:15:11.196Z,100241.47
2022-12-15T07:17:37.524Z,100245.09
2022-12-15T07:20:05.093Z,100258.06
2022-12-15T07:22:31.404Z,100252.91
2022-12-15T07:24:57.990Z,100264.69
2022-12-15T07:27:24.305Z,100264.06
2022-12-15T07:29:50.634Z,100271.66
2022-12-15T07:32:16.945Z,100276.25
2022-12-15T07:34:43.264Z,100285.75
2022-12-15T07:37:09.696Z,100279.34
2022-12-15T07:39:36.282Z,100279.50
2022-12-15T07:42:02.599Z,100286.97
2022-12-15T07:44:31.952Z,100297.50
2022-12-15T07:47:01.099Z,100293.97
2022-12-15T07:49:27.432Z,100295.97
2022-12-15T07:51:53.752Z,100300.31
2022-12-15T07:54:20.528Z,100306.94
2022-12-15T07:56:50.306Z,100309.09
2022-12-15T07:59:17.137Z,100314.19
2022-12-15T08:01:43.671Z,100319.50
2022-12-15T08:04:10.381Z,100309.59
2022-12-15T08:06:36.705Z,100311.22
2022-12-15T08:09:03.041Z,100308.47
2022-12-15T08:11:33.804Z,100311.34
2022-12-15T08:14:03.132Z,100312.09
2022-12-15T08:16:30.274Z,100322.13
2022-12-15T08:18:59.536Z,100320.69
2022-12-15T08:21:28.542Z,100328.78
2022-12-15T08:23:56.939Z,100337.63
2022-12-15T08:26:29.847Z,100324.56
2022-12-15T08:31:52.690Z,100347.38
2022-12-15T08:34:19.102Z,100340.13
2022-12-15T08:36:45.415Z,100345.47
2022-12-15T08:39:11.750Z,100330.84
2022-12-15T08:41:38.069Z,100334.09
2022-12-15T08:44:04.395Z,100330.84
2022-12-15T08:46:31.619Z,100329.00
2022-12-15T08:48:58.027Z,100344.69
2022-12-15T08:51:24.665Z,100351.81
2022-12-15T08:53:51.144Z,100350.03
2022-12-15T08:56:18.540Z,100352.03
2022-12-15T08:58:45.261Z,100359.94
2022-12-15T09:01:14.868Z,100349.72
2022-12-15T09:03:45.270Z,100358.38
2022-12-15T09:06:15.481Z,100359.78
2022-12-15T09:08:41.865Z,100354.75
2022-12-15T09:11:08.196Z,100346.84
2022-12-15T09:13:35.237Z,100338.91
2022-12-15T09:16:11.098Z,100349.00
2022-12-15T09:18:37.798Z,100349.72
2022-12-15T09:21:07.364Z,100366.25
2022-12-15T09:23:34.981Z,100365.53
2022-12-15T09:26:02.084Z,100367.00
2022-12-15T09:28:28.882Z,100379.19
2022-12-15T09:30:55.483Z,100374.81
2022-12-15T09:33:21.888Z,100372.69
2022-12-15T09:35:51.102Z,100374.16
2022-12-15T09:38:17.417Z,100362.66
2022-12-15T09:40:43.757Z,100360.66
2022-12-15T09:43:33.353Z,100368.56
2022-12-15T09:45:58.244Z,100368.78
2022-12-15T09:48:25.013Z,100365.69
2022-12-15T09:50:52.457Z,100358.28
2022-12-15T09:53:53.054Z,100368.50
2022-12-15T09:56:08.119Z,100368.50
2022-12-15T09:58:40.630Z,100370.69
2022-12-15T10:01:25.707Z,100374.31
2022-12-15T10:04:07.810Z,100371.44
2022-12-15T10:06:36.924Z,100374.31
2022-12-15T10:09:15.989Z,100372.91
2022-12-15T10:11:50.627Z,100382.97
2022-12-15T10:14:37.653Z,100388.72
2022-12-15T10:17:12.680Z,100388.84
2022-12-15T10:19:42.356Z,100380.00
2022-12-15T10:22:33.866Z,100378.50
2022-12-15T10:25:29.809Z,100381.47
2022-12-15T10:28:15.588Z,100386.56
2022-12-15T10:31:02.383Z,100390.19
2022-12-15T10:33:32.613Z,100377.31
2022-12-15T10:36:02.429Z,100378.75
2022-12-15T10:38:37.585Z,100377.31
2022-12-15T10:41:05.544Z,100378.81
2022-12-15T10:43:36.989Z,100379.69
2022-12-15T10:46:04.961Z,100384.28
2022-12-15T10:48:31.398Z,100387.22
2022-12-15T10:51:08.366Z,100396.66
2022-12-15T10:53:39.463Z,100381.63
2022-12-15T10:56:06.061Z,100388.03
2022-12-15T10:58:32.474Z,100403.19
2022-12-15T11:01:08.881Z,100394.06
2022-12-15T11:03:41.461Z,100408.03
2022-12-15T11:06:14.798Z,100415.16
2022-12-15T11:08:41.622Z,100414.06
2022-12-15T11:11:45.226Z,100415.31
2022-12-15T11:14:16.530Z,100416.72
2022-12-15T11:16:47.702Z,100416.41
2022-12-15T11:19:16.641Z,100427.84
2022-12-15T11:21:44.694Z,100422.88
2022-12-15T11:24:15.746Z,100432.00
2022-12-15T11:26:48.919Z,100421.75
2022-12-15T11:29:27.092Z,100419.69
2022-12-15T11:31:54.122Z,100424.28
2022-12-15T11:34:24.836Z,100417.34
2022-12-15T11:36:54.449Z,100420.34
2022-12-15T11:39:25.240Z,100421.13
2022-12-15T11:41:57.731Z,100415.28
2022-12-15T11:44:24.790Z,100429.00
2022-12-15T11:46:59.898Z,100418.47
2022-12-15T11:49:26.238Z,100425.63
2022-12-15T11:51:53.959Z,100428.41
2022-12-15T11:54:28.313Z,100413.34
2022-12-15T11:57:04.738Z,100415.28
2022-12-15T11:59:44.036Z,100402.28
2022-12-15T12:02:11.628Z,100397.63
2022-12-15T12:04:58.193Z,100405.97
2022-12-15T12:07:27.648Z,100401.25
2022-12-15T12:10:12.568Z,100403.09
2022-12-15T12:12:46.753Z,100390.91
2022-12-15T12:15:32.705Z,100400.66
2022-12-15T12:18:04.288Z,100400.81
2022-12-15T12:20:47.489Z,100395.94
2022-12-15T12:23:15.911Z,100398.97
2022-12-15T12:26:02.903Z,100397.97
2022-12-15T12:28:33.060Z,100397.69
2022-12-15T12:31:00.315Z,100400.03
2022-12-15T12:33:38.137Z,100397.16
2022-12-15T12:36:09.871Z,100398.56
2022-12-15T12:38:46.326Z,100418.63
2022-12-15T12:41:23.302Z,100411.50
2022-12-15T12:43:56.340Z,100405.09
2022-12-15T12:46:25.472Z,100413.50
2022-12-15T12:48:56.091Z,100413.06
2022-12-15T12:51:32.449Z,100418.09
2022-12-15T12:53:58.983Z,100423.53
2022-12-15T12:56:40.495Z,100430.34
2022-12-15T12:59:25.600Z,100434.19
2022-12-15T13:02:31.388Z,100427.06
2022-12-15T13:05:01.442Z,100421.09
2022-12-15T13:07:31.552Z,100419.69
2022-12-15T13:10:18.112Z,100414.09
2022-12-15T13:15:38.244Z,100416.66
2022-12-15T13:18:04.528Z,100418.34
2022-12-15T13:20:31.260Z,100422.47
2022-12-15T13:23:16.194Z,100414.16
2022-12-15T13:25:42.934Z,100414.38
2022-12-15T13:28:28.291Z,100411.75
2022-12-15T13:31:17.749Z,100404.66
2022-12-15T13:33:53.392Z,100402.50
2022-12-15T13:36:37.845Z,100403.19
2022-12-15T13:39:05.244Z,100400.22
2022-12-15T13:41:33.154Z,100406.72
2022-12-15T13:43:59.506Z,100407.28
2022-12-15T13:46:27.076Z,100410.16
2022-12-15T13:48:53.925Z,100418.72
2022-12-15T13:51:30.058Z,100412.91
2022-12-15T13:54:10.792Z,100420.78
2022-12-15T13:56:40.098Z,100410.53
2022-12-15T13:59:10.711Z,100416.94
2022-12-15T14:01:37.086Z,100411.19
2022-12-15T14:04:04.912Z,100406.84
2022-12-15T14:06:34.558Z,100417.19
2022-12-15T14:09:00.988Z,100412.31
2022-12-15T14:11:52.072Z,100415.63
2022-12-15T14:14:18.637Z,100410.13
2022-12-15T14:16:45.336Z,100411.72
2022-12-15T14:19:14.247Z,100409.69
2022-12-15T14:21:40.564Z,100412.00
2022-12-15T14:24:38.005Z,100409.88
2022-12-15T14:27:05.850Z,100417.22
2022-12-15T14:29:32.182Z,100431.53
2022-12-15T14:31:58.600Z,100416.47
2022-12-15T14:34:36.791Z,100411.25
2022-12-15T14:37:15.531Z,100424.97
2022-12-15T14:39:43.144Z,100414.63
2022-12-15T14:42:19.451Z,100424.56
2022-12-15T14:44:49.761Z,100426.34
2022-12-15T14:47:19.245Z,100415.78
2022-12-15T14:49:51.602Z,100409.22
2022-12-15T14:52:31.222Z,100419.97
2022-12-15T14:55:01.133Z,100424.53
2022-12-15T14:57:45.898Z,100423.13
2022-12-15T15:00:26.103Z,100425.06
2022-12-15T15:03:07.366Z,100419.47
2022-12-15T15:03:17.265Z,100425.00
2022-12-15T15:05:47.524Z,100427.22
2022-12-15T15:08:14.512Z,100430.03
2022-12-15T15:10:40.852Z,100433.56
2022-12-15T15:13:14.809Z,100434.31
2022-12-15T15:15:41.150Z,100433.00
2022-12-15T15:18:17.717Z,100436.53
2022-12-15T15:20:47.289Z,100435.13
2022-12-15T15:23:15.913Z,100437.34
2022-12-15T15:25:54.457Z,100432.38
2022-12-15T15:28:23.086Z,100433.09
2022-12-15T15:30:50.309Z,100439.00
2022-12-15T15:33:17.026Z,100434.78
2022-12-15T15:35:43.631Z,100444.84
2022-12-15T15:38:33.699Z,100431.91
2022-12-15T15:41:20.983Z,100430.44
2022-12-15T15:43:47.397Z,100432.03
2022-12-15T15:46:18.308Z,100423.47
2022-12-15T15:48:48.134Z,100427.91
2022-12-15T15:51:14.520Z,100429.38
2022-12-15T15:53:40.856Z,100435.22
2022-12-15T15:56:08.818Z,100438.81
2022-12-15T15:58:35.717Z,100436.75
2022-12-15T16:01:04.758Z,100440.38
2022-12-15T16:03:35.325Z,100442.66
2022-12-15T16:06:04.920Z,100435.72
2022-12-15T16:08:40.811Z,100441.13
2022-12-15T16:11:08.930Z,100434.66
2022-12-15T16:13:35.254Z,100434.00
2022-12-15T16:16:02.152Z,100435.47
2022-12-15T16:18:28.741Z,100437.75
2022-12-15T16:20:55.278Z,100441.31
2022-12-15T16:23:26.438Z,100439.91
2022-12-15T16:25:53.781Z,100452.91
2022-12-15T16:28:20.728Z,100459.34
2022-12-15T16:30:47.209Z,100466.13
2022-12-15T16:33:13.582Z,100466.41
2022-12-15T16:35:40.253Z,100471.28
2022-12-15T16:38:06.735Z,100464.03
2022-12-15T16:40:36.460Z,100470.34
2022-12-15T16:43:02.828Z,100470.34
2022-12-15T16:45:29.504Z,100476.19
2022-12-15T16:47:55.880Z,100469.69
2022-12-15T16:50:23.934Z,100473.38
2022-12-15T16:52:50.485Z,100477.94
2022-12-15T16:55:17.438Z,100475.25
2022-12-15T16:57:46.591Z,100478.88
2022-12-15T17:00:20.310Z,100479.38
2022-12-15T17:02:53.040Z,100480.66
2022-12-15T17:05:19.550Z,100482.16
2022-12-15T17:07:46.356Z,100473.38
2022-12-15T17:10:15.798Z,100487.25
2022-12-15T17:12:44.957Z,100492.28
2022-12-15T17:15:17.719Z,100490.66
2022-12-15T17:17:44.083Z,100492.94
2022-12-15T17:20:30.957Z,100495.22
2022-12-15T17:23:02.190Z,100503.94
2022-12-15T17:26:01.635Z,100506.28
2022-12-15T17:28:20.728Z,100516.81
2022-12-15T17:30:50.661Z,100508.44
2022-12-15T17:33:18.081Z,100505.38
2022-12-15T17:35:45.209Z,100510.88
2022-12-15T17:38:14.820Z,100514.94
2022-12-15T17:40:41.154Z,100524.84
2022-12-15T17:43:13.896Z,100530.44
2022-12-15T17:45:40.231Z,100531.75
2022-12-15T17:48:06.566Z,100534.50
2022-12-15T17:50:32.908Z,100530.03
2022-12-15T17:52:59.224Z,100529.94
2022-12-15T17:55:30.313Z,100527.00
2022-12-15T17:58:01.020Z,100524.13
2022-12-15T18:00:28.249Z,100524.06
2022-12-15T18:02:54.878Z,100524.78
2022-12-15T18:05:21.961Z,100523.91
2022-12-15T18:07:49.223Z,100522.25
2022-12-15T18:10:23.181Z,100513.84
2022-12-15T18:12:49.521Z,100507.59
2022-12-15T18:15:17.334Z,100506.28
2022-12-15T18:17:43.660Z,100511.81
2022-12-15T18:20:10.217Z,100522.25
2022-12-15T18:22:36.623Z,100511.09
2022-12-15T18:25:03.001Z,100510.88
2022-12-15T18:27:29.524Z,100527.19
2022-12-15T18:29:56.618Z,100535.09
2022-12-15T18:32:24.028Z,100530.69
2022-12-15T18:34:50.671Z,100539.00
2022-12-15T18:37:17.554Z,100541.50
2022-12-15T18:39:46.671Z,100549.88
2022-12-15T18:42:16.885Z,100551.28
2022-12-15T18:44:50.109Z,100548.44
2022-12-15T18:47:17.200Z,100558.66
2022-12-15T18:49:43.839Z,100555.69
2022-12-15T18:52:17.663Z,100556.44
2022-12-15T18:54:44.831Z,100548.47
2022-12-15T18:57:27.507Z,100548.94
2022-12-15T18:59:57.199Z,100547.13
2022-12-15T19:02:23.762Z,100548.66
2022-12-15T19:04:50.151Z,100551.41
2022-12-15T19:07:16.514Z,100548.81
2022-12-15T19:09:42.825Z,100550.09
2022-12-15T19:12:18.634Z,100554.00
2022-12-15T19:14:51.480Z,100553.78
2022-12-15T19:17:37.420Z,100552.50
2022-12-15T19:20:23.192Z,100547.50
2022-12-15T19:22:49.553Z,100536.00
2022-12-15T19:25:25.013Z,100540.28
2022-12-15T19:27:54.963Z,100548.88
2022-12-15T19:30:22.049Z,100550.34
2022-12-15T19:32:48.409Z,100558.25
2022-12-15T19:35:17.464Z,100549.53
2022-12-15T19:37:44.349Z,100555.38
2022-12-15T19:40:20.430Z,100561.84
2022-12-15T19:42:47.068Z,100561.22
2022-12-15T19:45:17.126Z,100561.75
2022-12-15T19:47:43.602Z,100569.06
2022-12-15T19:50:13.434Z,100563.31
2022-12-15T19:52:39.841Z,100561.94
2022-12-15T19:55:06.304Z,100560.44
2022-12-15T19:57:32.650Z,100548.97
2022-12-15T19:59:59.054Z,100554.69
2022-12-15T20:02:26.491Z,100550.34
2022-12-15T20:04:52.988Z,100554.63
2022-12-15T20:07:31.150Z,100551.00
2022-12-15T20:09:58.156Z,100562.50
2022-12-15T20:12:24.518Z,100550.28
2022-12-15T20:14:50.877Z,100550.28
2022-12-15T20:17:17.200Z,100563.16
2022-12-15T20:19:44.029Z,100561.75
2022-12-15T20:22:12.197Z,100553.16
2022-12-15T20:24:38.512Z,100561.75
2022-12-15T20:27:13.879Z,100556.03
2022-12-15T20:29:40.299Z,100564.00
2022-12-15T20:32:07.713Z,100563.31
2022-12-15T20:34:34.138Z,100556.19
2022-12-15T20:37:00.516Z,100554.69
2022-12-15T20:39:27.560Z,100563.41
2022-12-15T20:41:53.897Z,100552.69
2022-12-15T20:44:20.205Z,100554.78
2022-12-15T20:46:46.530Z,100560.44
2022-12-15T20:49:16.611Z,100561.22
2022-12-15T20:51:42.940Z,100558.25
2022-12-15T20:54:21.557Z,100557.50
2022-12-15T20:56:47.877Z,100563.16
2022-12-15T20:59:14.346Z,100568.91
2022-12-15T21:01:41.413Z,100566.03
2022-12-15T21:04:18.202Z,100568.91
2022-12-15T21:06:46.665Z,100567.50
2022-12-15T21:09:20.416Z,100571.13
2022-12-15T21:11:46.810Z,100569.00
2022-12-15T21:14:17.106Z,100574.00
2022-12-15T21:16:43.460Z,100567.50
2022-12-15T21:19:25.693Z,100570.38
2022-12-15T21:21:55.037Z,100575.41
2022-12-15T21:24:23.085Z,100576.03
2022-12-15T21:26:50.535Z,100578.91
2022-12-15T21:29:17.720Z,100581.06
2022-12-15T21:31:44.263Z,100578.81
2022-12-15T21:34:10.620Z,100580.31
2022-12-15T21:36:37.268Z,100573.06
2022-12-15T21:39:04.268Z,100578.81
2022-12-15T21:41:30.621Z,100565.88
2022-12-15T21:43:56.937Z,100560.75
2022-12-15T21:46:28.841Z,100561.50
2022-12-15T21:49:14.557Z,100555.75
2022-12-15T21:51:45.209Z,100557.78
2022-12-15T21:54:15.757Z,100565.03
2022-12-15T21:56:42.078Z,100555.69
2022-12-15T21:59:14.836Z,100563.63
2022-12-15T22:01:41.206Z,100558.63
2022-12-15T22:04:10.622Z,100566.59
2022-12-15T22:06:36.944Z,100561.59
2022-12-15T22:09:03.267Z,100573.06
2022-12-15T22:11:29.721Z,100567.34
2022-12-15T22:13:56.387Z,100562.34
2022-12-15T22:16:22.800Z,100575.84
2022-12-15T22:18:50.484Z,100573.00
2022-12-15T22:21:16.809Z,100575.78
2022-12-15T22:23:43.140Z,100574.94
2022-12-15T22:26:17.268Z,100575.03
2022-12-15T22:28:43.604Z,100565.03
2022-12-15T22:31:09.997Z,100564.31
2022-12-15T22:33:36.375Z,100559.94
2022-12-15T22:36:02.824Z,100561.44
2022-12-15T22:38:29.387Z,100557.16
2022-12-15T22:40:56.540Z,100562.91
2022-12-15T22:43:24.890Z,100559.28
2022-12-15T22:45:51.576Z,100562.16
2022-12-15T22:48:18.244Z,100554.91
2022-12-15T22:50:44.576Z,100571.44
2022-12-15T22:53:14.353Z,100561.25
2022-12-15T22:55:40.669Z,100572.00
2022-12-15T22:58:08.195Z,100559.75
2022-12-15T23:00:38.194Z,100564.03
2022-12-15T23:03:04.671Z,100574.78
2022-12-15T23:05:30.986Z,100575.53
2022-12-15T23:07:57.445Z,100580.63
2022-12-15T23:10:45.573Z,100582.72
2022-12-15T23:13:11.916Z,100577.75
2022-12-15T23:15:57.235Z,100578.47
2022-12-15T23:18:23.613Z,100578.41
2022-12-15T23:20:56.533Z,100577.66
2022-12-15T23:23:22.933Z,100568.28
2022-12-15T23:25:49.269Z,100571.81
2022-12-15T23:28:15.697Z,100576.81
2022-12-15T23:30:42.200Z,100576.81
2022-12-15T23:33:11.510Z,100576.81
2022-12-15T23:35:39.471Z,100582.56
2022-12-15T23:38:05.799Z,100583.94
2022-12-15T23:40:32.113Z,100578.13
2022-12-15T23:42:58.480Z,100585.34
2022-12-15T23:45:27.893Z,100584.03
2022-12-15T23:47:54.228Z,100592.66
2022-12-15T23:50:20.555Z,100598.41
2022-12-15T23:52:51.299Z,100594.03
2022-12-15T23:55:21.004Z,100594.03
2022-12-15T23:57:50.052Z,100599.78
